Time;durP1;ratioP1;P1;durP2;ratioP2;P2;SDS_P1;SDS_P2;PMS_P1;PMS_P2;Temp;Humidity;BMP_temperature;BMP_pressure;BME280_temperature;BME280_humidity;BME280_pressure;Samples;Min_cycle;Max_cycle;Signal;HPM_P1;HPM_P2
2023/06/14 00:01:35;;;;;;;0.20;0.20;;;16.90;64.30;;;;;;4836829;29;20060;-80
2023/06/14 00:04:01;;;;;;;0.20;0.20;;;16.80;64.40;;;;;;4836558;29;20738;-80
2023/06/14 00:06:28;;;;;;;0.20;0.20;;;16.80;64.60;;;;;;4821510;29;20662;-79
2023/06/14 00:08:54;;;;;;;0.20;0.20;;;16.80;64.70;;;;;;4818612;29;20453;-80
2023/06/14 00:11:20;;;;;;;0.10;0.10;;;16.70;65.00;;;;;;4832911;29;20041;-79
2023/06/14 00:13:46;;;;;;;0.20;0.20;;;16.70;65.20;;;;;;4835366;29;20042;-80
2023/06/14 00:16:12;;;;;;;0.10;0.10;;;16.70;65.20;;;;;;4835160;29;20054;-80
2023/06/14 00:18:38;;;;;;;0.20;0.20;;;16.60;65.40;;;;;;4836535;29;20073;-81
2023/06/14 00:21:04;;;;;;;0.20;0.20;;;16.60;65.50;;;;;;4821672;29;20053;-80
2023/06/14 00:23:30;;;;;;;0.15;0.15;;;16.50;65.60;;;;;;4818901;29;20164;-80
2023/06/14 00:25:56;;;;;;;0.20;0.20;;;16.50;65.70;;;;;;4813475;29;20125;-81
2023/06/14 00:28:22;;;;;;;0.20;0.20;;;16.50;65.90;;;;;;4819379;29;20560;-80
2023/06/14 00:30:48;;;;;;;0.15;0.15;;;16.40;66.00;;;;;;4831049;29;20060;-81
2023/06/14 00:33:13;;;;;;;0.10;0.10;;;16.40;66.10;;;;;;4834347;29;20042;-80
2023/06/14 00:35:39;;;;;;;0.10;0.10;;;16.40;66.40;;;;;;4825870;29;20082;-80
2023/06/14 00:38:05;;;;;;;0.10;0.10;;;16.40;66.30;;;;;;4821165;29;20049;-80
2023/06/14 00:40:31;;;;;;;0.20;0.20;;;16.40;66.50;;;;;;4820376;29;20052;-80
2023/06/14 00:42:56;;;;;;;0.13;0.13;;;16.40;66.60;;;;;;4817133;29;20046;-80
2023/06/14 00:45:22;;;;;;;0.10;0.10;;;16.30;66.60;;;;;;4835256;29;20046;-80
2023/06/14 00:47:52;;;;;;;0.20;0.20;;;16.20;66.70;;;;;;4813466;29;20046;-81
2023/06/14 00:50:20;;;;;;;0.20;0.20;;;16.20;66.90;;;;;;4836443;29;20049;-80
2023/06/14 00:52:45;;;;;;;0.20;0.20;;;16.20;67.00;;;;;;4821582;29;20050;-81
2023/06/14 00:55:11;;;;;;;0.10;0.10;;;16.20;67.00;;;;;;4815889;29;20419;-80
2023/06/14 00:57:39;;;;;;;0.20;0.20;;;16.10;67.10;;;;;;4831882;29;20476;-80
2023/06/14 01:00:08;;;;;;;0.20;0.20;;;16.10;67.40;;;;;;4821040;29;20098;-80
2023/06/14 01:02:38;;;;;;;0.20;0.20;;;16.10;67.50;;;;;;4837551;29;20053;-80
2023/06/14 01:05:06;;;;;;;0.20;0.20;;;16.10;67.60;;;;;;4818067;29;20527;-81
2023/06/14 01:07:59;;;;;;;0.20;0.20;;;16.10;67.70;;;;;;4822004;29;20049;-80
2023/06/14 01:10:52;;;;;;;0.20;0.20;;;16.00;67.80;;;;;;4830684;29;20141;-80
2023/06/14 01:13:36;;;;;;;0.10;0.10;;;16.00;67.90;;;;;;4834531;29;20186;-80
2023/06/14 01:16:03;;;;;;;0.20;0.20;;;16.00;68.10;;;;;;4820182;29;20405;-80
2023/06/14 01:18:29;;;;;;;0.20;0.20;;;15.90;68.20;;;;;;4834255;29;20422;-80
2023/06/14 01:20:56;;;;;;;0.20;0.20;;;15.90;68.20;;;;;;4820053;29;20062;-80
2023/06/14 01:23:22;;;;;;;0.20;0.20;;;15.90;68.40;;;;;;4816435;29;20045;-81
2023/06/14 01:25:52;;;;;;;0.20;0.20;;;15.90;68.60;;;;;;4832824;29;20046;-80
2023/06/14 01:28:20;;;;;;;0.20;0.20;;;15.80;68.60;;;;;;4815479;29;20080;-80
2023/06/14 01:30:51;;;;;;;0.20;0.20;;;15.80;68.60;;;;;;4832532;29;20376;-80
2023/06/14 01:33:27;;;;;;;0.13;0.13;;;15.80;68.70;;;;;;4829252;29;20038;-80
2023/06/14 01:35:53;;;;;;;0.20;0.20;;;15.80;68.90;;;;;;4821083;29;20054;-81
2023/06/14 01:38:28;;;;;;;0.20;0.20;;;15.80;69.00;;;;;;4834926;29;20058;-81
2023/06/14 01:40:58;;;;;;;0.10;0.10;;;15.70;69.10;;;;;;4835244;29;20422;-80
2023/06/14 01:43:25;;;;;;;0.10;0.10;;;15.70;69.20;;;;;;4830628;29;20050;-80
2023/06/14 01:45:53;;;;;;;0.20;0.20;;;15.70;69.30;;;;;;4819781;29;20060;-81
2023/06/14 01:48:20;;;;;;;0.13;0.13;;;15.70;69.30;;;;;;4817233;29;20400;-80
2023/06/14 01:50:46;;;;;;;0.20;0.20;;;15.60;69.40;;;;;;4831608;29;20054;-80
2023/06/14 01:53:11;;;;;;;0.13;0.13;;;15.60;69.50;;;;;;4832072;29;20053;-80
2023/06/14 01:55:37;;;;;;;0.20;0.20;;;15.60;69.60;;;;;;4836137;29;20077;-80
2023/06/14 01:58:04;;;;;;;0.17;0.17;;;15.60;69.90;;;;;;4817181;29;20049;-80
2023/06/14 02:00:30;;;;;;;0.20;0.20;;;15.60;69.70;;;;;;4812425;29;20458;-80
2023/06/14 02:02:56;;;;;;;0.20;0.20;;;15.50;69.80;;;;;;4820142;29;20129;-80
2023/06/14 02:05:22;;;;;;;0.20;0.20;;;15.50;70.00;;;;;;4830972;29;20395;-80
2023/06/14 02:07:47;;;;;;;0.20;0.20;;;15.50;70.10;;;;;;4823113;29;20158;-80
2023/06/14 02:10:14;;;;;;;0.15;0.15;;;15.50;70.20;;;;;;4839064;29;20195;-80
2023/06/14 02:12:40;;;;;;;0.20;0.20;;;15.50;70.30;;;;;;4809568;29;20051;-81
2023/06/14 02:15:06;;;;;;;0.20;0.20;;;15.50;70.40;;;;;;4812767;29;20414;-80
2023/06/14 02:17:32;;;;;;;0.20;0.20;;;15.40;70.50;;;;;;4836257;29;20065;-81
2023/06/14 02:19:58;;;;;;;0.10;0.10;;;15.40;70.60;;;;;;4820654;29;20049;-81
2023/06/14 02:22:24;;;;;;;0.10;0.10;;;15.40;70.60;;;;;;4822594;29;20053;-81
2023/06/14 02:24:50;;;;;;;0.20;0.20;;;15.40;70.70;;;;;;4818622;29;20078;-80
2023/06/14 02:27:16;;;;;;;0.10;0.10;;;15.40;70.70;;;;;;4840122;29;20050;-80
2023/06/14 02:29:42;;;;;;;0.20;0.20;;;15.40;70.90;;;;;;4819345;29;20050;-80
2023/06/14 02:32:08;;;;;;;0.20;0.20;;;15.40;71.00;;;;;;4819026;29;20454;-80
2023/06/14 02:34:34;;;;;;;0.20;0.20;;;15.80;71.30;;;;;;4820920;29;20135;-80
2023/06/14 02:37:02;;;;;;;0.15;0.15;;;15.30;71.10;;;;;;4819949;29;20046;-80
2023/06/14 02:39:28;;;;;;;0.20;0.20;;;15.30;71.10;;;;;;4820042;29;20217;-80
2023/06/14 02:41:54;;;;;;;0.20;0.20;;;15.30;71.30;;;;;;4838534;29;20050;-80
2023/06/14 02:44:23;;;;;;;0.20;0.20;;;15.20;71.30;;;;;;4820271;29;20044;-80
2023/06/14 02:46:49;;;;;;;0.20;0.20;;;15.20;71.40;;;;;;4819756;29;20566;-80
2023/06/14 02:49:14;;;;;;;0.20;0.20;;;15.20;71.60;;;;;;4817337;29;20133;-80
2023/06/14 02:51:40;;;;;;;0.10;0.10;;;15.20;71.70;;;;;;4838596;29;20050;-80
2023/06/14 02:54:06;;;;;;;0.20;0.20;;;15.10;71.80;;;;;;4822710;29;20125;-81
2023/06/14 02:56:31;;;;;;;0.10;0.10;;;15.10;72.00;;;;;;4815463;29;20111;-80
2023/06/14 02:58:58;;;;;;;0.15;0.15;;;15.10;72.10;;;;;;4835183;29;20046;-80
2023/06/14 03:01:33;;;;;;;0.15;0.15;;;15.00;72.20;;;;;;4818965;29;20518;-80
2023/06/14 03:03:59;;;;;;;0.10;0.10;;;15.00;72.30;;;;;;4809795;29;20132;-80
2023/06/14 03:06:25;;;;;;;0.15;0.15;;;14.90;72.40;;;;;;4821160;29;20132;-80
2023/06/14 03:08:51;;;;;;;0.15;0.15;;;14.90;72.40;;;;;;4836588;29;20129;-80
2023/06/14 03:11:20;;;;;;;0.20;0.20;;;14.90;72.60;;;;;;4819308;29;20228;-80
2023/06/14 03:13:46;;;;;;;0.15;0.15;;;14.90;72.60;;;;;;4821238;29;20402;-80
2023/06/14 03:16:12;;;;;;;0.13;0.13;;;14.90;72.70;;;;;;4833386;29;20550;-80
2023/06/14 03:18:38;;;;;;;0.20;0.20;;;14.90;72.80;;;;;;4834726;29;20050;-81
2023/06/14 03:21:04;;;;;;;0.17;0.17;;;14.90;73.00;;;;;;4819004;29;20049;-80
2023/06/14 03:23:31;;;;;;;0.10;0.10;;;14.90;73.20;;;;;;4823100;29;20064;-80
2023/06/14 03:25:56;;;;;;;0.20;0.20;;;14.90;73.30;;;;;;4818670;29;20512;-80
2023/06/14 03:28:22;;;;;;;0.20;0.20;;;14.90;73.40;;;;;;4821805;29;20084;-80
2023/06/14 03:30:47;;;;;;;0.20;0.20;;;14.90;73.50;;;;;;4815933;29;20045;-80
2023/06/14 03:33:13;;;;;;;0.20;0.20;;;14.80;73.50;;;;;;4819115;29;20414;-80
2023/06/14 03:35:39;;;;;;;0.20;0.20;;;14.90;73.70;;;;;;4783524;29;1154223;-80
2023/06/14 03:38:05;;;;;;;0.10;0.10;;;14.90;73.90;;;;;;4836790;29;20062;-80
2023/06/14 03:40:31;;;;;;;0.10;0.10;;;14.80;73.50;;;;;;4819461;29;20411;-80
2023/06/14 03:42:57;;;;;;;0.20;0.20;;;14.90;74.10;;;;;;4838180;29;20118;-80
2023/06/14 03:45:22;;;;;;;0.13;0.13;;;14.90;74.20;;;;;;4837427;29;20456;-80
2023/06/14 03:47:48;;;;;;;0.17;0.17;;;14.90;74.30;;;;;;4819644;29;20073;-80
2023/06/14 03:50:15;;;;;;;0.10;0.10;;;14.90;74.40;;;;;;4817321;29;20046;-80
2023/06/14 03:52:42;;;;;;;0.10;0.10;;;15.00;74.40;;;;;;4815340;29;20136;-80
2023/06/14 03:55:08;;;;;;;0.20;0.20;;;15.00;74.50;;;;;;4828846;29;20050;-79
2023/06/14 03:57:34;;;;;;;0.10;0.10;;;15.00;74.50;;;;;;4819400;29;20058;-80
2023/06/14 03:59:59;;;;;;;0.10;0.10;;;15.00;74.60;;;;;;4834539;29;20486;-80
2023/06/14 04:02:28;;;;;;;0.17;0.17;;;15.10;74.70;;;;;;4831609;29;20065;-80
2023/06/14 04:04:54;;;;;;;0.20;0.20;;;15.10;74.80;;;;;;4834259;29;20038;-80
2023/06/14 04:07:20;;;;;;;0.20;0.20;;;15.10;74.90;;;;;;4835577;29;20045;-80
2023/06/14 04:09:46;;;;;;;0.20;0.20;;;15.10;75.00;;;;;;4820132;29;20076;-80
2023/06/14 04:12:12;;;;;;;0.20;0.20;;;15.10;75.10;;;;;;4818317;29;20049;-80
2023/06/14 04:14:40;;;;;;;0.20;0.20;;;15.20;75.20;;;;;;4835234;29;20194;-80
2023/06/14 04:17:06;;;;;;;0.20;0.20;;;15.20;75.30;;;;;;4836542;29;20042;-79
2023/06/14 04:19:32;;;;;;;0.10;0.10;;;15.30;75.40;;;;;;4832630;29;20065;-80
2023/06/14 04:22:02;;;;;;;0.20;0.20;;;15.20;75.50;;;;;;4818737;29;20057;-81
2023/06/14 04:24:31;;;;;;;0.10;0.10;;;15.40;75.80;;;;;;4815229;29;20055;-80
2023/06/14 04:26:58;;;;;;;0.20;0.20;;;15.30;75.70;;;;;;4819586;29;20046;-80
2023/06/14 04:29:26;;;;;;;0.20;0.20;;;15.40;75.80;;;;;;4818699;29;20079;-80
2023/06/14 04:31:54;;;;;;;0.20;0.20;;;15.40;75.90;;;;;;4818522;29;20517;-80
2023/06/14 04:34:21;;;;;;;0.20;0.20;;;15.50;76.00;;;;;;4831318;29;20046;-80
2023/06/14 04:36:53;;;;;;;0.20;0.20;;;15.50;76.10;;;;;;4816297;29;20130;-79
2023/06/14 04:39:22;;;;;;;0.20;0.20;;;15.50;76.20;;;;;;4821627;29;20054;-80
2023/06/14 04:41:52;;;;;;;0.20;0.20;;;15.60;76.40;;;;;;4821625;29;20172;-78
2023/06/14 04:44:19;;;;;;;0.20;0.20;;;15.60;76.50;;;;;;4835708;29;20049;-79
2023/06/14 04:46:46;;;;;;;0.20;0.20;;;15.60;76.60;;;;;;4821299;29;20103;-80
2023/06/14 04:49:15;;;;;;;0.17;0.17;;;15.70;76.70;;;;;;4812396;29;20129;-80
2023/06/14 04:51:42;;;;;;;0.15;0.15;;;15.70;76.90;;;;;;4818045;29;20060;-80
2023/06/14 04:54:14;;;;;;;0.13;0.13;;;15.70;76.90;;;;;;4822103;29;20054;-80
2023/06/14 04:56:42;;;;;;;0.20;0.20;;;15.80;77.10;;;;;;4836082;29;20145;-80
2023/06/14 04:59:08;;;;;;;0.20;0.20;;;15.80;77.20;;;;;;4816494;29;20109;-79
2023/06/14 05:01:35;;;;;;;0.10;0.10;;;15.90;77.90;;;;;;4819915;29;20057;-79
2023/06/14 05:04:00;;;;;;;0.17;0.17;;;15.90;77.50;;;;;;4816802;29;20113;-79
2023/06/14 05:06:27;;;;;;;0.15;0.15;;;16.00;77.50;;;;;;4816450;29;20223;-79
2023/06/14 05:08:53;;;;;;;0.20;0.20;;;16.00;77.50;;;;;;4834595;29;20053;-79
2023/06/14 05:11:19;;;;;;;0.20;0.20;;;16.00;77.50;;;;;;4831721;29;20491;-80
2023/06/14 05:13:46;;;;;;;0.20;0.20;;;16.10;77.60;;;;;;4838625;29;20050;-81
2023/06/14 05:16:12;;;;;;;0.20;0.20;;;16.10;77.60;;;;;;4836817;29;20045;-79
2023/06/14 05:18:40;;;;;;;0.17;0.17;;;16.20;77.70;;;;;;4810624;29;20076;-79
2023/06/14 05:21:06;;;;;;;0.17;0.17;;;16.20;77.70;;;;;;4813771;29;20060;-80
2023/06/14 05:23:32;;;;;;;0.10;0.10;;;16.30;77.80;;;;;;4832659;29;20880;-80
2023/06/14 05:25:57;;;;;;;0.20;0.20;;;16.30;77.90;;;;;;4819607;29;20054;-79
2023/06/14 05:28:24;;;;;;;0.20;0.20;;;16.30;77.90;;;;;;4819324;29;20130;-79
2023/06/14 05:30:49;;;;;;;0.20;0.20;;;16.40;77.80;;;;;;4833740;29;20427;-80
2023/06/14 05:33:15;;;;;;;0.20;0.20;;;16.40;77.80;;;;;;4835046;29;20054;-80
2023/06/14 05:35:41;;;;;;;0.20;0.20;;;16.50;77.90;;;;;;4831684;29;20057;-80
2023/06/14 05:38:07;;;;;;;0.10;0.10;;;16.50;77.80;;;;;;4813813;29;20815;-80
2023/06/14 05:40:33;;;;;;;0.20;0.20;;;16.60;77.70;;;;;;4838694;29;20415;-79
2023/06/14 05:42:59;;;;;;;0.20;0.20;;;16.80;79.50;;;;;;4823110;29;20046;-80
2023/06/14 05:45:24;;;;;;;0.20;0.20;;;16.70;78.00;;;;;;4822130;29;20439;-79
2023/06/14 05:47:50;;;;;;;0.20;0.20;;;16.70;77.60;;;;;;4821384;29;21742;-79
2023/06/14 05:50:16;;;;;;;0.20;0.20;;;16.80;77.60;;;;;;4827547;29;20507;-79
2023/06/14 05:52:41;;;;;;;0.20;0.20;;;16.80;77.50;;;;;;4816591;29;20058;-79
2023/06/14 05:55:08;;;;;;;0.10;0.10;;;16.90;77.50;;;;;;4816024;29;20046;-80
2023/06/14 05:57:33;;;;;;;0.17;0.17;;;16.90;77.50;;;;;;4836113;29;20057;-79
2023/06/14 05:59:59;;;;;;;0.20;0.20;;;17.00;77.50;;;;;;4839726;29;20038;-80
2023/06/14 06:02:24;;;;;;;0.20;0.20;;;17.00;77.50;;;;;;4820241;29;20053;-79
2023/06/14 06:04:50;;;;;;;0.20;0.20;;;17.10;77.60;;;;;;4816628;29;20471;-79
2023/06/14 06:07:16;;;;;;;0.10;0.10;;;17.10;77.60;;;;;;4816925;29;20046;-80
2023/06/14 06:09:41;;;;;;;0.20;0.20;;;17.20;77.50;;;;;;4836725;29;20052;-80
2023/06/14 06:12:07;;;;;;;0.20;0.20;;;17.20;77.50;;;;;;4817375;29;20575;-79
2023/06/14 06:14:33;;;;;;;0.20;0.20;;;17.30;77.50;;;;;;4830781;29;20398;-79
2023/06/14 06:16:59;;;;;;;0.10;0.10;;;17.40;77.40;;;;;;4822188;29;20053;-79
2023/06/14 06:19:25;;;;;;;0.20;0.20;;;17.40;77.40;;;;;;4812293;29;20741;-80
2023/06/14 06:21:51;;;;;;;0.20;0.20;;;17.50;77.30;;;;;;4817862;29;20502;-80
2023/06/14 06:24:16;;;;;;;0.20;0.20;;;17.50;77.20;;;;;;4835347;29;20042;-79
2023/06/14 06:26:42;;;;;;;0.20;0.20;;;17.60;77.20;;;;;;4836143;29;20123;-80
2023/06/14 06:29:08;;;;;;;0.10;0.10;;;17.60;77.10;;;;;;4820736;29;20098;-81
2023/06/14 06:31:33;;;;;;;0.20;0.20;;;17.70;77.00;;;;;;4819773;29;20049;-80
2023/06/14 06:33:59;;;;;;;0.10;0.10;;;17.80;77.00;;;;;;4820143;29;20681;-80
2023/06/14 06:36:24;;;;;;;0.20;0.20;;;17.90;77.10;;;;;;4836749;29;20058;-80
2023/06/14 06:38:50;;;;;;;0.20;0.20;;;17.90;76.90;;;;;;4824046;29;20093;-80
2023/06/14 06:41:16;;;;;;;0.20;0.20;;;17.90;76.90;;;;;;4821917;29;20053;-81
2023/06/14 06:43:42;;;;;;;0.20;0.20;;;18.00;77.00;;;;;;4823025;29;20050;-80
2023/06/14 06:46:07;;;;;;;0.20;0.20;;;18.00;76.80;;;;;;4822011;29;20038;-81
2023/06/14 06:48:33;;;;;;;0.10;0.10;;;18.10;76.80;;;;;;4821774;29;20047;-81
2023/06/14 06:50:59;;;;;;;0.10;0.10;;;18.10;76.60;;;;;;4838027;29;20042;-81
2023/06/14 06:53:25;;;;;;;0.20;0.20;;;18.20;76.70;;;;;;4814789;29;20041;-80
2023/06/14 06:55:50;;;;;;;0.20;0.20;;;18.20;76.60;;;;;;4847233;29;20049;-81
2023/06/14 06:58:16;;;;;;;0.20;0.20;;;18.30;76.60;;;;;;4820859;29;20056;-80
2023/06/14 07:00:42;;;;;;;0.20;0.20;;;18.40;76.80;;;;;;4823260;29;20048;-82
2023/06/14 07:03:07;;;;;;;0.10;0.10;;;18.50;76.70;;;;;;4838553;29;20113;-80
2023/06/14 07:05:33;;;;;;;0.20;0.20;;;18.50;76.60;;;;;;4822712;29;20054;-80
2023/06/14 07:08:00;;;;;;;0.20;0.20;;;18.60;76.80;;;;;;4818766;29;20069;-81
2023/06/14 07:10:26;;;;;;;0.20;0.20;;;18.60;76.60;;;;;;4812771;29;20407;-81
2023/06/14 07:12:51;;;;;;;0.10;0.10;;;18.70;76.40;;;;;;4834705;29;20046;-80
2023/06/14 07:15:17;;;;;;;0.10;0.10;;;18.80;76.40;;;;;;4820897;29;20593;-81
2023/06/14 07:17:43;;;;;;;0.20;0.20;;;18.80;76.40;;;;;;4816030;29;20085;-81
2023/06/14 07:20:12;;;;;;;0.20;0.20;;;18.80;75.80;;;;;;4837726;29;20126;-80
2023/06/14 07:22:41;;;;;;;0.20;0.20;;;18.90;75.70;;;;;;4836182;29;20128;-80
2023/06/14 07:25:09;;;;;;;0.20;0.20;;;18.90;75.40;;;;;;4820664;29;20041;-80
2023/06/14 07:27:34;;;;;;;0.20;0.20;;;19.00;75.20;;;;;;4825066;29;20049;-81
2023/06/14 07:30:00;;;;;;;0.13;0.13;;;19.10;75.10;;;;;;4839394;29;20110;-80
2023/06/14 07:32:26;;;;;;;0.20;0.20;;;19.10;75.10;;;;;;4838310;29;20045;-81
2023/06/14 07:34:51;;;;;;;0.20;0.20;;;19.20;74.90;;;;;;4822828;29;20097;-81
2023/06/14 07:37:17;;;;;;;0.20;0.20;;;19.20;74.80;;;;;;4821143;29;20262;-84
2023/06/14 07:39:43;;;;;;;0.10;0.10;;;19.20;74.70;;;;;;4819165;29;20056;-81
2023/06/14 07:42:08;;;;;;;0.15;0.15;;;19.30;74.70;;;;;;4841866;29;20042;-81
2023/06/14 07:44:34;;;;;;;0.20;0.20;;;19.40;74.60;;;;;;4823918;29;20121;-78
2023/06/14 07:47:00;;;;;;;0.20;0.20;;;19.40;74.40;;;;;;4833527;29;20050;-78
2023/06/14 07:49:27;;;;;;;0.20;0.20;;;19.50;74.10;;;;;;4830466;29;20042;-79
2023/06/14 07:51:53;;;;;;;0.20;0.20;;;19.50;74.20;;;;;;4844235;29;20524;-78
2023/06/14 07:54:19;;;;;;;0.10;0.10;;;19.60;74.20;;;;;;4820999;29;20042;-79
2023/06/14 07:56:45;;;;;;;0.20;0.20;;;19.70;74.60;;;;;;4808596;29;20060;-78
2023/06/14 07:59:11;;;;;;;0.20;0.20;;;19.70;73.80;;;;;;4833080;29;20083;-79
2023/06/14 08:01:37;;;;;;;0.20;0.20;;;19.80;73.70;;;;;;4837466;29;20129;-84
2023/06/14 08:04:02;;;;;;;0.20;0.20;;;19.80;73.40;;;;;;4818104;29;20180;-86
2023/06/14 08:06:29;;;;;;;0.20;0.20;;;19.90;73.20;;;;;;4824996;29;20065;-86
2023/06/14 08:08:54;;;;;;;0.20;0.20;;;19.90;73.10;;;;;;4824597;29;20125;-85
2023/06/14 08:11:20;;;;;;;0.10;0.10;;;20.00;72.90;;;;;;4834239;29;20177;-85
2023/06/14 08:13:46;;;;;;;0.20;0.20;;;20.00;72.70;;;;;;4832160;29;20494;-90
2023/06/14 08:16:11;;;;;;;0.15;0.15;;;20.10;72.70;;;;;;4844129;29;20049;-86
2023/06/14 08:18:37;;;;;;;0.20;0.20;;;20.10;72.90;;;;;;4828767;29;20050;-86
2023/06/14 08:21:03;;;;;;;0.20;0.20;;;20.20;72.90;;;;;;4839778;29;20073;-88
2023/06/14 08:23:29;;;;;;;0.20;0.20;;;20.20;72.80;;;;;;4809899;29;20058;-85
2023/06/14 08:25:55;;;;;;;0.20;0.20;;;20.30;72.50;;;;;;4804749;29;20063;-86
2023/06/14 08:28:20;;;;;;;0.20;0.20;;;20.30;72.20;;;;;;4808404;29;20038;-85
2023/06/14 08:30:46;;;;;;;0.10;0.10;;;20.40;72.10;;;;;;4818090;29;20590;-85
2023/06/14 08:33:12;;;;;;;0.20;0.20;;;20.50;71.80;;;;;;4836410;29;20064;-79
2023/06/14 08:35:39;;;;;;;0.20;0.20;;;20.50;72.10;;;;;;4831271;29;20114;-79
2023/06/14 08:38:05;;;;;;;0.20;0.20;;;20.60;71.50;;;;;;4836668;29;20045;-79
2023/06/14 08:40:31;;;;;;;0.10;0.10;;;20.60;71.50;;;;;;4818082;29;20472;-80
2023/06/14 08:42:58;;;;;;;0.20;0.20;;;20.70;71.50;;;;;;4840290;29;20545;-79
2023/06/14 08:45:25;;;;;;;0.20;0.20;;;20.70;71.40;;;;;;4829096;29;20117;-79
2023/06/14 08:47:57;;;;;;;0.20;0.20;;;20.80;71.50;;;;;;4834632;29;20041;-79
2023/06/14 08:50:31;;;;;;;0.10;0.10;;;20.80;71.80;;;;;;4833294;29;20046;-79
2023/06/14 08:53:01;;;;;;;0.20;0.20;;;21.00;72.00;;;;;;4821192;29;20513;-80
2023/06/14 08:55:28;;;;;;;0.20;0.20;;;21.00;72.20;;;;;;4820057;29;20578;-79
2023/06/14 08:57:57;;;;;;;0.20;0.20;;;21.00;71.40;;;;;;4833534;29;20064;-79
2023/06/14 09:00:27;;;;;;;0.10;0.10;;;21.10;71.30;;;;;;4821276;29;20050;-78
2023/06/14 09:02:58;;;;;;;0.10;0.10;;;21.10;71.00;;;;;;4831041;29;20117;-79
2023/06/14 09:05:28;;;;;;;0.10;0.10;;;21.20;70.90;;;;;;4818157;29;20080;-79
2023/06/14 09:08:00;;;;;;;0.20;0.20;;;21.20;70.80;;;;;;4822339;29;20061;-80
2023/06/14 09:10:27;;;;;;;0.20;0.20;;;21.30;71.10;;;;;;4839484;29;20052;-79
2023/06/14 09:12:53;;;;;;;0.20;0.20;;;21.30;71.20;;;;;;4808520;29;20038;-80
2023/06/14 09:15:19;;;;;;;0.20;0.20;;;21.40;71.20;;;;;;4818757;29;20042;-79
2023/06/14 09:17:45;;;;;;;0.20;0.20;;;21.40;71.30;;;;;;4824228;29;20554;-80
2023/06/14 09:20:13;;;;;;;0.20;0.20;;;21.50;71.00;;;;;;4806982;29;20108;-79
2023/06/14 09:22:39;;;;;;;0.20;0.20;;;21.50;70.50;;;;;;4808652;29;20524;-79
2023/06/14 09:25:05;;;;;;;0.20;0.20;;;21.60;70.40;;;;;;4811394;29;20087;-79
2023/06/14 09:27:32;;;;;;;0.20;0.20;;;21.60;70.40;;;;;;4825909;29;20084;-81
2023/06/14 09:29:58;;;;;;;0.20;0.20;;;21.70;70.30;;;;;;4825329;29;20042;-79
2023/06/14 09:32:24;;;;;;;0.20;0.20;;;21.70;70.10;;;;;;4811074;29;20141;-80
2023/06/14 09:34:50;;;;;;;0.20;0.20;;;21.70;70.00;;;;;;4813383;29;20053;-78
2023/06/14 09:37:32;;;;;;;0.20;0.20;;;21.70;69.80;;;;;;4840759;29;20406;-79
2023/06/14 09:39:58;;;;;;;0.20;0.20;;;21.80;69.50;;;;;;4809417;29;20681;-79
2023/06/14 09:42:25;;;;;;;0.20;0.20;;;21.80;69.70;;;;;;4808182;29;20058;-80
2023/06/14 09:44:53;;;;;;;0.20;0.20;;;21.90;69.50;;;;;;4837906;29;20081;-79
2023/06/14 09:47:19;;;;;;;0.20;0.20;;;21.90;69.30;;;;;;4830556;29;20528;-79
2023/06/14 09:49:45;;;;;;;0.20;0.20;;;21.90;69.40;;;;;;4821866;29;20142;-79
2023/06/14 09:52:15;;;;;;;0.20;0.20;;;22.00;70.20;;;;;;4812838;29;20121;-80
2023/06/14 09:54:44;;;;;;;0.25;0.25;;;22.00;69.60;;;;;;4837716;29;20053;-79
2023/06/14 09:57:20;;;;;;;0.20;0.20;;;22.10;69.20;;;;;;4814616;29;20522;-79
2023/06/14 09:59:50;;;;;;;0.20;0.20;;;22.10;69.00;;;;;;4826696;29;20077;-80
2023/06/14 10:02:37;;;;;;;0.20;0.20;;;22.10;68.90;;;;;;4841522;29;20069;-80
2023/06/14 10:05:08;;;;;;;0.20;0.20;;;22.10;68.60;;;;;;4817209;29;20101;-79
2023/06/14 10:07:51;;;;;;;0.20;0.20;;;22.10;68.20;;;;;;4806654;29;20046;-80
2023/06/14 10:10:17;;;;;;;0.20;0.20;;;22.90;68.60;;;;;;4828741;29;20038;-80
2023/06/14 10:12:42;;;;;;;0.20;0.20;;;22.20;68.30;;;;;;4837982;29;20056;-79
2023/06/14 10:15:11;;;;;;;0.10;0.10;;;22.30;68.30;;;;;;4859190;29;20050;-79
2023/06/14 10:17:48;;;;;;;0.20;0.20;;;22.30;68.20;;;;;;4825031;29;20056;-79
2023/06/14 10:20:19;;;;;;;0.20;0.20;;;22.40;68.20;;;;;;4833111;29;20046;-79
2023/06/14 10:22:53;;;;;;;0.20;0.20;;;22.40;68.00;;;;;;4813476;29;20053;-80
2023/06/14 10:25:29;;;;;;;0.20;0.20;;;22.40;68.00;;;;;;4841337;29;20177;-79
2023/06/14 10:28:23;;;;;;;0.10;0.10;;;22.50;68.10;;;;;;4820075;29;20038;-80
2023/06/14 10:31:08;;;;;;;0.20;0.20;;;22.50;68.40;;;;;;4849532;29;20077;-81
2023/06/14 10:33:53;;;;;;;0.20;0.20;;;22.60;68.30;;;;;;4835149;29;20581;-80
2023/06/14 10:36:38;;;;;;;0.20;0.20;;;22.60;68.30;;;;;;4822331;29;20114;-79
2023/06/14 10:39:18;;;;;;;0.20;0.20;;;22.60;67.90;;;;;;4813070;29;20060;-79
2023/06/14 10:41:54;;;;;;;0.20;0.20;;;22.70;67.50;;;;;;4840763;29;20053;-80
2023/06/14 10:44:20;;;;;;;0.20;0.20;;;22.70;67.50;;;;;;4824338;29;20132;-79
2023/06/14 10:46:52;;;;;;;0.20;0.20;;;22.80;67.40;;;;;;4837563;29;20133;-78
2023/06/14 10:49:48;;;;;;;0.20;0.20;;;22.80;67.20;;;;;;4807960;29;20103;-79
2023/06/14 10:52:18;;;;;;;0.20;0.20;;;22.90;67.20;;;;;;4838633;29;20046;-78
2023/06/14 10:55:05;;;;;;;0.20;0.20;;;22.90;67.10;;;;;;4836734;29;20050;-78
2023/06/14 10:57:32;;;;;;;0.20;0.20;;;23.00;67.10;;;;;;4822037;29;20457;-78
2023/06/14 10:59:59;;;;;;;0.20;0.20;;;23.10;67.20;;;;;;4819548;29;20050;-79
2023/06/14 11:02:56;;;;;;;0.20;0.20;;;23.10;67.00;;;;;;4830790;29;20046;-78
2023/06/14 11:05:27;;;;;;;0.20;0.20;;;23.20;66.70;;;;;;4837857;29;20420;-79
2023/06/14 11:08:17;;;;;;;0.20;0.20;;;23.20;66.90;;;;;;4838627;29;20046;-80
2023/06/14 11:10:45;;;;;;;0.30;0.30;;;23.30;66.70;;;;;;4806289;29;20057;-79
2023/06/14 11:13:11;;;;;;;0.20;0.20;;;23.40;66.40;;;;;;4827972;29;20053;-78
2023/06/14 11:15:38;;;;;;;0.20;0.20;;;23.40;66.30;;;;;;4840027;29;20085;-78
2023/06/14 11:18:09;;;;;;;0.20;0.20;;;23.50;66.10;;;;;;4833206;29;20073;-79
2023/06/14 11:20:36;;;;;;;0.20;0.20;;;23.50;66.10;;;;;;4822920;29;20148;-79
2023/06/14 11:23:03;;;;;;;0.20;0.20;;;23.60;66.00;;;;;;4814995;29;20049;-80
2023/06/14 11:25:29;;;;;;;0.20;0.20;;;23.70;66.10;;;;;;4828153;29;20045;-79
2023/06/14 11:27:55;;;;;;;0.20;0.20;;;23.80;65.90;;;;;;4815086;29;20070;-79
2023/06/14 11:30:21;;;;;;;0.28;0.28;;;23.90;66.00;;;;;;4814392;29;20045;-78
2023/06/14 11:32:52;;;;;;;0.20;0.20;;;24.00;66.20;;;;;;4815262;29;20053;-79
2023/06/14 11:35:22;;;;;;;0.20;0.20;;;24.10;65.90;;;;;;4827594;29;20062;-80
2023/06/14 11:37:48;;;;;;;0.20;0.20;;;24.20;65.80;;;;;;4820692;29;20050;-80
2023/06/14 11:40:14;;;;;;;0.20;0.20;;;24.30;65.40;;;;;;4819574;29;20057;-81
2023/06/14 11:42:41;;;;;;;0.28;0.28;;;24.20;65.50;;;;;;4834216;29;20144;-80
2023/06/14 11:45:11;;;;;;;0.20;0.20;;;24.30;65.40;;;;;;4817707;29;20046;-80
2023/06/14 11:47:39;;;;;;;0.20;0.20;;;24.40;65.00;;;;;;4813731;29;20046;-81
2023/06/14 11:50:08;;;;;;;0.20;0.20;;;24.50;64.70;;;;;;4838071;29;20054;-78
2023/06/14 11:52:34;;;;;;;0.20;0.20;;;24.50;64.20;;;;;;4836906;29;20437;-80
2023/06/14 11:55:00;;;;;;;0.20;0.20;;;24.60;64.40;;;;;;4823404;29;20132;-80
2023/06/14 11:57:26;;;;;;;0.20;0.20;;;24.60;64.30;;;;;;4820357;29;20133;-79
2023/06/14 11:59:54;;;;;;;0.20;0.20;;;24.70;64.20;;;;;;4822356;29;20137;-78
2023/06/14 12:02:22;;;;;;;0.20;0.20;;;24.70;64.00;;;;;;4822872;29;20061;-81
2023/06/14 12:04:48;;;;;;;0.20;0.20;;;24.80;63.90;;;;;;4807480;29;20133;-80
2023/06/14 12:07:19;;;;;;;0.20;0.20;;;24.90;63.30;;;;;;4834950;29;20082;-80
2023/06/14 12:09:54;;;;;;;0.20;0.20;;;24.80;63.20;;;;;;4837777;29;20045;-79
2023/06/14 12:12:25;;;;;;;0.20;0.20;;;24.80;63.90;;;;;;4820178;29;20096;-78
2023/06/14 12:14:51;;;;;;;0.20;0.20;;;24.90;64.20;;;;;;4812214;29;20038;-79
2023/06/14 12:17:18;;;;;;;0.20;0.20;;;25.10;64.90;;;;;;4828886;29;20367;-80
2023/06/14 12:19:46;;;;;;;0.20;0.20;;;25.20;63.60;;;;;;4827091;29;20739;-84
2023/06/14 12:22:15;;;;;;;0.20;0.20;;;25.30;63.30;;;;;;4819475;29;20094;-83
2023/06/14 12:24:45;;;;;;;0.20;0.20;;;25.40;63.40;;;;;;4823209;29;20084;-82
2023/06/14 12:27:18;;;;;;;0.20;0.20;;;25.50;63.50;;;;;;4816138;29;20056;-82
2023/06/14 12:29:44;;;;;;;0.20;0.20;;;25.60;63.10;;;;;;4836309;29;20678;-84
2023/06/14 12:32:10;;;;;;;0.20;0.20;;;25.70;62.90;;;;;;4808895;29;20094;-82
2023/06/14 12:34:36;;;;;;;0.20;0.20;;;25.80;62.50;;;;;;4836270;29;20062;-84
2023/06/14 12:37:03;;;;;;;0.20;0.20;;;25.70;62.60;;;;;;4821352;29;20042;-84
2023/06/14 12:39:31;;;;;;;0.20;0.20;;;25.70;62.60;;;;;;4820755;29;20146;-84
2023/06/14 12:41:57;;;;;;;0.20;0.20;;;25.80;62.70;;;;;;4834510;29;20049;-82
2023/06/14 12:44:23;;;;;;;0.20;0.20;;;25.90;62.90;;;;;;4838671;29;20049;-80
2023/06/14 12:46:51;;;;;;;0.20;0.20;;;26.00;62.30;;;;;;4820412;29;20526;-77
2023/06/14 12:49:17;;;;;;;0.20;0.20;;;26.10;62.20;;;;;;4819689;29;20061;-78
2023/06/14 12:51:43;;;;;;;0.20;0.20;;;26.20;62.10;;;;;;4814122;29;20622;-77